Terminal Aerodrome Forecast
Issued by NWS Northern Indiana

Home | Current Version | Previous Version | Graphics & Text | Print | Product List | Glossary On
Versions: 1 2 3 4 5 6 7 8 9 10 11 12 13 14 15
000
FTUS43 KIWX 280500
TAFFWA
TAF
KFWA 280538Z 2806/2906 00000KT P6SM FEW200
     FM281500 14007KT P6SM SCT120 BKN200
     FM281900 15011KT P6SM BKN120
     FM290400 16013G20KT P6SM FEW050 BKN150=

USA.gov is the U.S. government's official web portal to all federal, state and local government web resources and services.